sensor_id;sensor_type;location;lat;lon;timestamp;P1;durP1;ratioP1;P2;durP2;ratioP2
66575;SDS011;53428;47.686;16.584;2022-12-18T00:04:28;39.95;;;17.15;;
66575;SDS011;53428;47.686;16.584;2022-12-18T00:09:28;45.15;;;20.25;;
66575;SDS011;53428;47.686;16.584;2022-12-18T00:14:27;52.03;;;19.80;;
66575;SDS011;53428;47.686;16.584;2022-12-18T00:19:27;38.05;;;17.23;;
66575;SDS011;53428;47.686;16.584;2022-12-18T00:24:26;36.40;;;17.17;;
66575;SDS011;53428;47.686;16.584;2022-12-18T00:29:25;34.67;;;16.20;;
66575;SDS011;53428;47.686;16.584;2022-12-18T00:34:24;39.88;;;17.40;;
66575;SDS011;53428;47.686;16.584;2022-12-18T00:39:24;36.08;;;15.65;;
66575;SDS011;53428;47.686;16.584;2022-12-18T00:44:23;41.50;;;18.80;;
66575;SDS011;53428;47.686;16.584;2022-12-18T00:49:22;33.00;;;14.30;;
66575;SDS011;53428;47.686;16.584;2022-12-18T00:54:21;41.17;;;16.52;;
66575;SDS011;53428;47.686;16.584;2022-12-18T00:59:21;35.65;;;15.13;;
66575;SDS011;53428;47.686;16.584;2022-12-18T01:04:20;30.83;;;15.48;;
66575;SDS011;53428;47.686;16.584;2022-12-18T01:09:20;25.60;;;13.65;;
66575;SDS011;53428;47.686;16.584;2022-12-18T01:14:19;31.08;;;14.38;;
66575;SDS011;53428;47.686;16.584;2022-12-18T01:19:18;30.35;;;13.32;;
66575;SDS011;53428;47.686;16.584;2022-12-18T01:24:17;28.08;;;14.38;;
66575;SDS011;53428;47.686;16.584;2022-12-18T01:29:17;25.77;;;11.75;;
66575;SDS011;53428;47.686;16.584;2022-12-18T01:34:16;27.88;;;13.20;;
66575;SDS011;53428;47.686;16.584;2022-12-18T01:39:15;29.63;;;12.82;;
66575;SDS011;53428;47.686;16.584;2022-12-18T01:49:51;38.25;;;13.05;;
66575;SDS011;53428;47.686;16.584;2022-12-18T01:54:52;33.88;;;13.98;;
66575;SDS011;53428;47.686;16.584;2022-12-18T01:59:53;28.52;;;12.43;;
66575;SDS011;53428;47.686;16.584;2022-12-18T02:04:59;30.70;;;14.32;;
66575;SDS011;53428;47.686;16.584;2022-12-18T02:10:04;31.45;;;13.02;;
66575;SDS011;53428;47.686;16.584;2022-12-18T02:15:26;38.70;;;14.02;;
66575;SDS011;53428;47.686;16.584;2022-12-18T02:31:06;32.80;;;14.07;;
66575;SDS011;53428;47.686;16.584;2022-12-18T02:36:09;31.95;;;14.13;;
66575;SDS011;53428;47.686;16.584;2022-12-18T02:41:11;28.23;;;12.63;;
66575;SDS011;53428;47.686;16.584;2022-12-18T02:46:26;29.83;;;12.70;;
66575;SDS011;53428;47.686;16.584;2022-12-18T02:51:30;26.67;;;11.80;;
66575;SDS011;53428;47.686;16.584;2022-12-18T02:56:40;31.25;;;13.90;;
66575;SDS011;53428;47.686;16.584;2022-12-18T03:01:52;34.17;;;14.00;;
66575;SDS011;53428;47.686;16.584;2022-12-18T03:06:57;30.50;;;13.43;;
66575;SDS011;53428;47.686;16.584;2022-12-18T03:12:04;29.77;;;12.70;;
66575;SDS011;53428;47.686;16.584;2022-12-18T03:17:23;34.38;;;14.05;;
66575;SDS011;53428;47.686;16.584;2022-12-18T03:22:27;29.30;;;14.63;;
66575;SDS011;53428;47.686;16.584;2022-12-18T03:27:29;26.25;;;11.25;;
66575;SDS011;53428;47.686;16.584;2022-12-18T03:32:33;29.80;;;12.38;;
66575;SDS011;53428;47.686;16.584;2022-12-18T03:37:42;30.00;;;12.13;;
66575;SDS011;53428;47.686;16.584;2022-12-18T03:58:15;27.73;;;12.82;;
66575;SDS011;53428;47.686;16.584;2022-12-18T04:03:18;30.23;;;13.15;;
66575;SDS011;53428;47.686;16.584;2022-12-18T04:08:20;29.88;;;12.18;;
66575;SDS011;53428;47.686;16.584;2022-12-18T04:13:32;27.02;;;13.48;;
66575;SDS011;53428;47.686;16.584;2022-12-18T04:18:33;24.73;;;11.40;;
66575;SDS011;53428;47.686;16.584;2022-12-18T04:23:33;27.15;;;12.05;;
66575;SDS011;53428;47.686;16.584;2022-12-18T04:28:32;32.15;;;13.65;;
66575;SDS011;53428;47.686;16.584;2022-12-18T04:33:32;29.58;;;12.13;;
66575;SDS011;53428;47.686;16.584;2022-12-18T04:38:31;34.90;;;13.25;;
66575;SDS011;53428;47.686;16.584;2022-12-18T04:43:31;26.55;;;11.45;;
66575;SDS011;53428;47.686;16.584;2022-12-18T04:48:31;35.53;;;12.05;;
66575;SDS011;53428;47.686;16.584;2022-12-18T04:53:31;35.25;;;14.73;;
66575;SDS011;53428;47.686;16.584;2022-12-18T04:58:30;51.15;;;18.35;;
66575;SDS011;53428;47.686;16.584;2022-12-18T05:03:29;30.42;;;13.13;;
66575;SDS011;53428;47.686;16.584;2022-12-18T05:08:29;28.42;;;12.32;;
66575;SDS011;53428;47.686;16.584;2022-12-18T05:13:29;30.23;;;13.23;;
66575;SDS011;53428;47.686;16.584;2022-12-18T05:18:28;24.00;;;11.43;;
66575;SDS011;53428;47.686;16.584;2022-12-18T05:23:28;30.67;;;12.65;;
66575;SDS011;53428;47.686;16.584;2022-12-18T05:28:28;28.65;;;12.55;;
66575;SDS011;53428;47.686;16.584;2022-12-18T05:33:29;30.83;;;11.70;;
66575;SDS011;53428;47.686;16.584;2022-12-18T05:38:31;26.70;;;12.40;;
66575;SDS011;53428;47.686;16.584;2022-12-18T05:43:33;37.13;;;13.13;;
66575;SDS011;53428;47.686;16.584;2022-12-18T05:48:34;39.20;;;13.27;;
66575;SDS011;53428;47.686;16.584;2022-12-18T05:53:34;32.42;;;12.82;;
66575;SDS011;53428;47.686;16.584;2022-12-18T05:58:34;25.60;;;12.05;;
66575;SDS011;53428;47.686;16.584;2022-12-18T06:03:34;28.67;;;13.32;;
66575;SDS011;53428;47.686;16.584;2022-12-18T06:08:33;32.25;;;12.90;;
66575;SDS011;53428;47.686;16.584;2022-12-18T06:13:32;29.10;;;12.95;;
66575;SDS011;53428;47.686;16.584;2022-12-18T06:18:32;32.97;;;16.42;;
66575;SDS011;53428;47.686;16.584;2022-12-18T06:23:31;30.20;;;13.48;;
66575;SDS011;53428;47.686;16.584;2022-12-18T06:28:31;36.95;;;14.05;;
66575;SDS011;53428;47.686;16.584;2022-12-18T06:33:30;35.55;;;13.73;;
66575;SDS011;53428;47.686;16.584;2022-12-18T06:38:31;34.15;;;15.85;;
66575;SDS011;53428;47.686;16.584;2022-12-18T06:43:31;31.30;;;12.65;;
66575;SDS011;53428;47.686;16.584;2022-12-18T06:48:31;42.97;;;19.10;;
66575;SDS011;53428;47.686;16.584;2022-12-18T06:53:31;41.50;;;17.23;;
66575;SDS011;53428;47.686;16.584;2022-12-18T06:58:30;35.03;;;14.32;;
66575;SDS011;53428;47.686;16.584;2022-12-18T07:03:29;40.05;;;15.15;;
66575;SDS011;53428;47.686;16.584;2022-12-18T07:08:30;34.40;;;13.95;;
66575;SDS011;53428;47.686;16.584;2022-12-18T07:13:30;34.70;;;15.20;;
66575;SDS011;53428;47.686;16.584;2022-12-18T07:18:29;35.88;;;14.60;;
66575;SDS011;53428;47.686;16.584;2022-12-18T07:23:32;32.28;;;15.88;;
66575;SDS011;53428;47.686;16.584;2022-12-18T07:28:32;42.03;;;16.80;;
66575;SDS011;53428;47.686;16.584;2022-12-18T07:33:34;37.65;;;16.52;;
66575;SDS011;53428;47.686;16.584;2022-12-18T07:38:34;32.67;;;15.40;;
66575;SDS011;53428;47.686;16.584;2022-12-18T07:43:34;38.05;;;18.15;;
66575;SDS011;53428;47.686;16.584;2022-12-18T07:48:34;40.63;;;16.63;;
66575;SDS011;53428;47.686;16.584;2022-12-18T07:53:34;40.22;;;14.93;;
66575;SDS011;53428;47.686;16.584;2022-12-18T07:58:34;33.70;;;17.20;;
66575;SDS011;53428;47.686;16.584;2022-12-18T08:03:34;39.90;;;15.77;;
66575;SDS011;53428;47.686;16.584;2022-12-18T08:08:34;47.63;;;19.38;;
66575;SDS011;53428;47.686;16.584;2022-12-18T08:13:34;48.38;;;18.92;;
66575;SDS011;53428;47.686;16.584;2022-12-18T08:18:34;37.95;;;18.23;;
66575;SDS011;53428;47.686;16.584;2022-12-18T08:23:34;38.08;;;17.25;;
66575;SDS011;53428;47.686;16.584;2022-12-18T08:28:33;42.13;;;18.27;;
66575;SDS011;53428;47.686;16.584;2022-12-18T08:33:33;38.78;;;17.27;;
66575;SDS011;53428;47.686;16.584;2022-12-18T08:38:33;35.00;;;17.15;;
66575;SDS011;53428;47.686;16.584;2022-12-18T08:43:32;39.20;;;15.52;;
66575;SDS011;53428;47.686;16.584;2022-12-18T08:48:50;41.40;;;17.77;;
66575;SDS011;53428;47.686;16.584;2022-12-18T08:53:51;44.33;;;19.30;;
66575;SDS011;53428;47.686;16.584;2022-12-18T08:58:54;50.92;;;23.52;;
66575;SDS011;53428;47.686;16.584;2022-12-18T09:03:53;85.65;;;28.58;;
66575;SDS011;53428;47.686;16.584;2022-12-18T09:08:52;64.70;;;27.13;;
66575;SDS011;53428;47.686;16.584;2022-12-18T09:13:52;83.60;;;34.95;;
66575;SDS011;53428;47.686;16.584;2022-12-18T09:18:52;65.93;;;28.58;;
66575;SDS011;53428;47.686;16.584;2022-12-18T09:23:57;51.25;;;24.83;;
66575;SDS011;53428;47.686;16.584;2022-12-18T09:28:58;37.97;;;19.23;;
66575;SDS011;53428;47.686;16.584;2022-12-18T09:33:57;38.60;;;16.40;;
66575;SDS011;53428;47.686;16.584;2022-12-18T09:38:57;44.10;;;18.38;;
66575;SDS011;53428;47.686;16.584;2022-12-18T09:43:57;44.45;;;18.90;;
66575;SDS011;53428;47.686;16.584;2022-12-18T09:49:00;35.80;;;16.52;;
66575;SDS011;53428;47.686;16.584;2022-12-18T09:54:05;37.95;;;18.45;;
66575;SDS011;53428;47.686;16.584;2022-12-18T09:59:18;41.90;;;18.67;;
66575;SDS011;53428;47.686;16.584;2022-12-18T10:04:23;38.40;;;18.17;;
66575;SDS011;53428;47.686;16.584;2022-12-18T10:19:54;45.90;;;20.02;;
66575;SDS011;53428;47.686;16.584;2022-12-18T10:25:01;58.13;;;23.38;;
66575;SDS011;53428;47.686;16.584;2022-12-18T10:30:18;56.10;;;26.67;;
66575;SDS011;53428;47.686;16.584;2022-12-18T10:35:23;39.08;;;17.30;;
66575;SDS011;53428;47.686;16.584;2022-12-18T10:40:25;41.53;;;19.08;;
66575;SDS011;53428;47.686;16.584;2022-12-18T10:45:24;38.50;;;19.25;;
66575;SDS011;53428;47.686;16.584;2022-12-18T10:55:34;45.33;;;20.52;;
66575;SDS011;53428;47.686;16.584;2022-12-18T11:00:36;48.13;;;20.92;;
66575;SDS011;53428;47.686;16.584;2022-12-18T11:05:36;31.77;;;15.85;;
66575;SDS011;53428;47.686;16.584;2022-12-18T11:10:36;34.15;;;16.10;;
66575;SDS011;53428;47.686;16.584;2022-12-18T11:15:37;36.65;;;18.00;;
66575;SDS011;53428;47.686;16.584;2022-12-18T11:20:39;40.25;;;18.67;;
66575;SDS011;53428;47.686;16.584;2022-12-18T11:25:38;60.65;;;24.05;;
66575;SDS011;53428;47.686;16.584;2022-12-18T11:30:38;34.67;;;18.98;;
66575;SDS011;53428;47.686;16.584;2022-12-18T11:40:51;48.72;;;24.00;;
66575;SDS011;53428;47.686;16.584;2022-12-18T11:46:47;39.88;;;18.48;;
66575;SDS011;53428;47.686;16.584;2022-12-18T11:56:53;37.72;;;18.05;;
66575;SDS011;53428;47.686;16.584;2022-12-18T12:18:00;38.63;;;16.40;;
66575;SDS011;53428;47.686;16.584;2022-12-18T12:38:59;46.47;;;21.02;;
66575;SDS011;53428;47.686;16.584;2022-12-18T12:44:06;39.45;;;17.55;;
66575;SDS011;53428;47.686;16.584;2022-12-18T12:49:18;39.35;;;17.30;;
66575;SDS011;53428;47.686;16.584;2022-12-18T12:54:22;34.15;;;16.05;;
66575;SDS011;53428;47.686;16.584;2022-12-18T13:04:42;28.58;;;13.70;;
66575;SDS011;53428;47.686;16.584;2022-12-18T13:16:03;32.60;;;14.10;;
66575;SDS011;53428;47.686;16.584;2022-12-18T13:20:50;39.78;;;18.10;;
66575;SDS011;53428;47.686;16.584;2022-12-18T13:31:04;38.35;;;18.42;;
66575;SDS011;53428;47.686;16.584;2022-12-18T13:36:23;36.80;;;16.38;;
66575;SDS011;53428;47.686;16.584;2022-12-18T13:41:27;41.72;;;18.98;;
66575;SDS011;53428;47.686;16.584;2022-12-18T13:51:30;36.53;;;15.65;;
66575;SDS011;53428;47.686;16.584;2022-12-18T13:56:32;33.90;;;18.23;;
66575;SDS011;53428;47.686;16.584;2022-12-18T14:01:32;36.28;;;16.98;;
66575;SDS011;53428;47.686;16.584;2022-12-18T14:06:32;33.67;;;17.88;;
66575;SDS011;53428;47.686;16.584;2022-12-18T14:11:31;35.35;;;16.20;;
66575;SDS011;53428;47.686;16.584;2022-12-18T14:16:31;35.05;;;15.98;;
66575;SDS011;53428;47.686;16.584;2022-12-18T14:21:30;34.72;;;15.18;;
66575;SDS011;53428;47.686;16.584;2022-12-18T14:26:32;35.28;;;16.75;;
66575;SDS011;53428;47.686;16.584;2022-12-18T14:31:32;43.50;;;18.65;;
66575;SDS011;53428;47.686;16.584;2022-12-18T14:36:31;39.40;;;17.73;;
66575;SDS011;53428;47.686;16.584;2022-12-18T14:41:33;43.00;;;19.00;;
66575;SDS011;53428;47.686;16.584;2022-12-18T14:46:34;41.53;;;16.05;;
66575;SDS011;53428;47.686;16.584;2022-12-18T14:51:37;38.75;;;16.95;;
66575;SDS011;53428;47.686;16.584;2022-12-18T14:56:37;39.35;;;17.98;;
66575;SDS011;53428;47.686;16.584;2022-12-18T15:01:47;31.38;;;16.17;;
66575;SDS011;53428;47.686;16.584;2022-12-18T15:07:09;44.95;;;20.50;;
66575;SDS011;53428;47.686;16.584;2022-12-18T15:12:48;54.08;;;21.52;;
66575;SDS011;53428;47.686;16.584;2022-12-18T15:17:45;39.35;;;17.15;;
66575;SDS011;53428;47.686;16.584;2022-12-18T15:22:45;36.47;;;16.25;;
66575;SDS011;53428;47.686;16.584;2022-12-18T15:27:46;42.55;;;16.98;;
66575;SDS011;53428;47.686;16.584;2022-12-18T15:32:46;46.72;;;20.23;;
66575;SDS011;53428;47.686;16.584;2022-12-18T15:37:48;40.40;;;17.92;;
66575;SDS011;53428;47.686;16.584;2022-12-18T15:42:48;40.22;;;15.23;;
66575;SDS011;53428;47.686;16.584;2022-12-18T15:48:20;30.30;;;16.27;;
66575;SDS011;53428;47.686;16.584;2022-12-18T15:53:21;37.75;;;16.67;;
66575;SDS011;53428;47.686;16.584;2022-12-18T15:58:20;35.30;;;16.20;;
66575;SDS011;53428;47.686;16.584;2022-12-18T16:03:20;33.67;;;16.80;;
66575;SDS011;53428;47.686;16.584;2022-12-18T16:08:20;38.13;;;16.42;;
66575;SDS011;53428;47.686;16.584;2022-12-18T16:13:20;38.60;;;16.00;;
66575;SDS011;53428;47.686;16.584;2022-12-18T16:18:19;37.65;;;14.45;;
66575;SDS011;53428;47.686;16.584;2022-12-18T16:23:19;35.83;;;14.95;;
66575;SDS011;53428;47.686;16.584;2022-12-18T16:28:19;33.15;;;13.07;;
66575;SDS011;53428;47.686;16.584;2022-12-18T16:33:18;38.42;;;17.13;;
66575;SDS011;53428;47.686;16.584;2022-12-18T16:38:18;39.63;;;17.42;;
66575;SDS011;53428;47.686;16.584;2022-12-18T16:43:18;35.78;;;14.15;;
66575;SDS011;53428;47.686;16.584;2022-12-18T16:48:17;30.73;;;14.50;;
66575;SDS011;53428;47.686;16.584;2022-12-18T16:53:17;48.75;;;19.02;;
66575;SDS011;53428;47.686;16.584;2022-12-18T16:58:17;38.72;;;17.27;;
66575;SDS011;53428;47.686;16.584;2022-12-18T17:03:17;42.40;;;16.92;;
66575;SDS011;53428;47.686;16.584;2022-12-18T17:08:17;39.22;;;17.65;;
66575;SDS011;53428;47.686;16.584;2022-12-18T17:13:17;40.22;;;18.77;;
66575;SDS011;53428;47.686;16.584;2022-12-18T17:18:17;45.38;;;17.55;;
66575;SDS011;53428;47.686;16.584;2022-12-18T17:23:16;41.42;;;19.13;;
66575;SDS011;53428;47.686;16.584;2022-12-18T17:28:19;43.40;;;17.88;;
66575;SDS011;53428;47.686;16.584;2022-12-18T17:33:20;34.53;;;17.75;;
66575;SDS011;53428;47.686;16.584;2022-12-18T17:38:22;48.28;;;21.30;;
66575;SDS011;53428;47.686;16.584;2022-12-18T17:43:21;44.22;;;17.70;;
66575;SDS011;53428;47.686;16.584;2022-12-18T17:48:21;39.95;;;17.25;;
66575;SDS011;53428;47.686;16.584;2022-12-18T17:53:25;50.38;;;21.00;;
66575;SDS011;53428;47.686;16.584;2022-12-18T17:58:25;44.33;;;18.83;;
66575;SDS011;53428;47.686;16.584;2022-12-18T18:03:26;46.13;;;19.27;;
66575;SDS011;53428;47.686;16.584;2022-12-18T18:08:26;41.53;;;20.05;;
66575;SDS011;53428;47.686;16.584;2022-12-18T18:13:26;42.03;;;17.63;;
66575;SDS011;53428;47.686;16.584;2022-12-18T18:18:45;48.08;;;20.05;;
66575;SDS011;53428;47.686;16.584;2022-12-18T18:23:44;41.08;;;20.27;;
66575;SDS011;53428;47.686;16.584;2022-12-18T18:28:44;56.35;;;24.50;;
66575;SDS011;53428;47.686;16.584;2022-12-18T18:33:46;51.88;;;21.52;;
66575;SDS011;53428;47.686;16.584;2022-12-18T18:38:47;58.63;;;22.23;;
66575;SDS011;53428;47.686;16.584;2022-12-18T18:43:53;54.35;;;20.33;;
66575;SDS011;53428;47.686;16.584;2022-12-18T18:48:54;53.38;;;21.10;;
66575;SDS011;53428;47.686;16.584;2022-12-18T18:53:54;61.88;;;23.45;;
66575;SDS011;53428;47.686;16.584;2022-12-18T18:58:54;46.38;;;21.48;;
66575;SDS011;53428;47.686;16.584;2022-12-18T19:03:55;52.22;;;19.65;;
66575;SDS011;53428;47.686;16.584;2022-12-18T19:08:55;52.35;;;22.05;;
66575;SDS011;53428;47.686;16.584;2022-12-18T19:13:56;51.80;;;21.65;;
66575;SDS011;53428;47.686;16.584;2022-12-18T19:18:56;52.47;;;21.77;;
66575;SDS011;53428;47.686;16.584;2022-12-18T19:23:58;51.00;;;22.23;;
66575;SDS011;53428;47.686;16.584;2022-12-18T19:29:01;68.18;;;28.45;;
66575;SDS011;53428;47.686;16.584;2022-12-18T19:34:05;47.47;;;20.90;;
66575;SDS011;53428;47.686;16.584;2022-12-18T19:39:12;63.83;;;25.52;;
66575;SDS011;53428;47.686;16.584;2022-12-18T19:44:15;59.92;;;26.23;;
66575;SDS011;53428;47.686;16.584;2022-12-18T19:49:16;51.70;;;24.20;;
66575;SDS011;53428;47.686;16.584;2022-12-18T19:54:16;70.57;;;27.63;;
66575;SDS011;53428;47.686;16.584;2022-12-18T19:59:16;70.70;;;27.85;;
66575;SDS011;53428;47.686;16.584;2022-12-18T20:04:16;65.93;;;26.08;;
66575;SDS011;53428;47.686;16.584;2022-12-18T20:09:18;53.88;;;26.95;;
66575;SDS011;53428;47.686;16.584;2022-12-18T20:14:19;50.05;;;23.40;;
66575;SDS011;53428;47.686;16.584;2022-12-18T20:19:19;52.50;;;24.73;;
66575;SDS011;53428;47.686;16.584;2022-12-18T20:24:20;59.35;;;26.67;;
66575;SDS011;53428;47.686;16.584;2022-12-18T20:29:19;51.85;;;24.02;;
66575;SDS011;53428;47.686;16.584;2022-12-18T20:34:19;58.40;;;24.35;;
66575;SDS011;53428;47.686;16.584;2022-12-18T20:39:18;55.85;;;26.50;;
66575;SDS011;53428;47.686;16.584;2022-12-18T20:44:18;60.72;;;24.88;;
66575;SDS011;53428;47.686;16.584;2022-12-18T20:49:17;58.42;;;24.42;;
66575;SDS011;53428;47.686;16.584;2022-12-18T20:54:20;59.03;;;24.30;;
66575;SDS011;53428;47.686;16.584;2022-12-18T20:59:21;52.50;;;23.92;;
66575;SDS011;53428;47.686;16.584;2022-12-18T21:04:21;53.88;;;23.15;;
66575;SDS011;53428;47.686;16.584;2022-12-18T21:09:21;50.35;;;25.77;;
66575;SDS011;53428;47.686;16.584;2022-12-18T21:14:22;49.20;;;23.05;;
66575;SDS011;53428;47.686;16.584;2022-12-18T21:19:23;53.55;;;22.88;;
66575;SDS011;53428;47.686;16.584;2022-12-18T21:24:25;51.47;;;22.35;;
66575;SDS011;53428;47.686;16.584;2022-12-18T21:29:25;54.92;;;23.50;;
66575;SDS011;53428;47.686;16.584;2022-12-18T21:34:26;59.75;;;22.33;;
66575;SDS011;53428;47.686;16.584;2022-12-18T21:39:28;55.85;;;23.65;;
66575;SDS011;53428;47.686;16.584;2022-12-18T21:44:45;58.55;;;25.63;;
66575;SDS011;53428;47.686;16.584;2022-12-18T21:49:46;61.08;;;26.25;;
66575;SDS011;53428;47.686;16.584;2022-12-18T21:54:45;55.95;;;26.15;;
66575;SDS011;53428;47.686;16.584;2022-12-18T21:59:45;61.88;;;23.58;;
66575;SDS011;53428;47.686;16.584;2022-12-18T22:04:44;68.70;;;27.05;;
66575;SDS011;53428;47.686;16.584;2022-12-18T22:09:44;63.13;;;25.35;;
66575;SDS011;53428;47.686;16.584;2022-12-18T22:14:45;57.50;;;27.45;;
66575;SDS011;53428;47.686;16.584;2022-12-18T22:19:44;60.63;;;24.73;;
66575;SDS011;53428;47.686;16.584;2022-12-18T22:24:43;68.55;;;28.42;;
66575;SDS011;53428;47.686;16.584;2022-12-18T22:29:42;61.42;;;27.48;;
66575;SDS011;53428;47.686;16.584;2022-12-18T22:35:01;56.83;;;27.77;;
66575;SDS011;53428;47.686;16.584;2022-12-18T22:40:02;65.68;;;28.65;;
66575;SDS011;53428;47.686;16.584;2022-12-18T22:45:02;70.05;;;29.25;;
66575;SDS011;53428;47.686;16.584;2022-12-18T22:50:02;64.53;;;28.48;;
66575;SDS011;53428;47.686;16.584;2022-12-18T22:55:01;67.13;;;29.25;;
66575;SDS011;53428;47.686;16.584;2022-12-18T23:00:01;53.53;;;24.05;;
66575;SDS011;53428;47.686;16.584;2022-12-18T23:05:00;78.22;;;30.27;;
66575;SDS011;53428;47.686;16.584;2022-12-18T23:10:00;60.97;;;25.23;;
66575;SDS011;53428;47.686;16.584;2022-12-18T23:14:59;61.40;;;27.85;;
66575;SDS011;53428;47.686;16.584;2022-12-18T23:19:58;62.75;;;26.40;;
66575;SDS011;53428;47.686;16.584;2022-12-18T23:24:58;58.05;;;24.83;;
66575;SDS011;53428;47.686;16.584;2022-12-18T23:29:57;61.17;;;24.25;;
66575;SDS011;53428;47.686;16.584;2022-12-18T23:34:57;57.17;;;22.02;;
66575;SDS011;53428;47.686;16.584;2022-12-18T23:39:56;67.05;;;25.17;;
66575;SDS011;53428;47.686;16.584;2022-12-18T23:44:55;59.00;;;22.40;;
66575;SDS011;53428;47.686;16.584;2022-12-18T23:49:55;56.78;;;26.48;;
66575;SDS011;53428;47.686;16.584;2022-12-18T23:54:54;61.65;;;24.35;;
66575;SDS011;53428;47.686;16.584;2022-12-18T23:59:53;60.85;;;25.42;;
